createdAt,value
2018-05-18T00:01:28.712Z,50.80
2018-05-18T00:11:32.665Z,50.60
2018-05-18T00:21:36.598Z,50.60
2018-05-18T00:31:39.883Z,50.60
2018-05-18T00:41:43.229Z,50.60
2018-05-18T00:51:46.397Z,50.60
2018-05-18T01:01:49.626Z,50.60
2018-05-18T01:11:52.888Z,50.50
2018-05-18T01:21:56.131Z,50.60
2018-05-18T01:31:59.318Z,50.50
2018-05-18T01:42:03.385Z,50.60
2018-05-18T01:52:07.347Z,50.50
2018-05-18T02:02:11.288Z,50.50
2018-05-18T02:12:14.556Z,50.50
2018-05-18T02:22:18.580Z,50.60
2018-05-18T02:32:21.710Z,50.50
2018-05-18T02:42:25.058Z,50.50
2018-05-18T02:52:28.332Z,50.40
2018-05-18T03:02:31.525Z,50.40
2018-05-18T03:12:35.673Z,50.60
2018-05-18T03:22:38.875Z,50.50
2018-05-18T03:32:42.051Z,50.50
2018-05-18T03:42:45.228Z,50.60
2018-05-18T03:52:48.399Z,50.60
2018-05-18T04:03:09.426Z,50.50
2018-05-18T04:13:12.619Z,50.60
2018-05-18T04:23:16.675Z,50.50
2018-05-18T04:33:20.620Z,50.60
2018-05-18T04:43:23.895Z,50.60
2018-05-18T04:53:27.084Z,50.50
2018-05-18T05:03:30.268Z,50.50
2018-05-18T05:13:34.210Z,50.50
2018-05-18T05:23:37.470Z,50.50
2018-05-18T05:33:40.596Z,50.50
2018-05-18T05:43:44.456Z,50.50
2018-05-18T05:53:47.632Z,50.50
2018-05-18T06:03:50.811Z,50.50
2018-05-18T06:13:53.990Z,50.50
2018-05-18T06:23:58.903Z,50.50
2018-05-18T06:34:03.112Z,50.50
2018-05-18T06:44:06.344Z,50.50
2018-05-18T06:54:09.542Z,50.50
2018-05-18T07:04:12.728Z,50.50
2018-05-18T07:14:15.917Z,50.50
2018-05-18T07:24:19.859Z,50.50
2018-05-18T07:34:23.111Z,50.50
2018-05-18T07:44:27.051Z,50.60
2018-05-18T07:54:31.089Z,50.50
2018-05-18T08:04:34.271Z,50.60
2018-05-18T08:14:38.224Z,50.50
2018-05-18T08:24:41.435Z,50.60
2018-05-18T08:34:44.664Z,50.60
2018-05-18T08:44:47.892Z,50.70
2018-05-18T08:54:51.055Z,50.70
2018-05-18T09:04:54.251Z,50.70
2018-05-18T09:14:58.298Z,50.80
2018-05-18T09:25:02.249Z,50.80
2018-05-18T09:35:05.449Z,50.70
2018-05-18T09:45:08.733Z,50.70
2018-05-18T09:55:12.058Z,50.70
2018-05-18T10:05:15.788Z,50.70
2018-05-18T10:15:19.021Z,50.70
2018-05-18T10:25:26.858Z,50.70
2018-05-18T10:35:30.812Z,50.70
2018-05-18T10:45:34.812Z,50.80
2018-05-18T11:51:31.642Z,50.70
2018-05-18T12:01:35.597Z,50.60
2018-05-18T12:11:39.567Z,50.70
2018-05-18T12:21:43.531Z,50.60
2018-05-18T12:31:47.474Z,50.60
2018-05-18T12:41:50.656Z,50.60
2018-05-18T12:51:53.841Z,50.60
2018-05-18T13:01:57.023Z,50.60
2018-05-18T13:12:00.194Z,50.50
2018-05-18T13:22:03.404Z,50.50
2018-05-18T13:32:06.739Z,50.50
2018-05-18T13:42:10.677Z,50.60
2018-05-18T13:52:13.863Z,50.60
2018-05-18T14:02:17.116Z,50.70
2018-05-18T14:12:20.369Z,50.70
2018-05-18T14:22:23.704Z,50.70
2018-05-18T14:32:26.905Z,50.80
2018-05-18T14:42:30.220Z,50.80
2018-05-18T14:52:33.411Z,50.80
2018-05-18T15:02:36.681Z,50.70
2018-05-18T15:12:39.883Z,50.70
2018-05-18T15:22:43.819Z,50.70
2018-05-18T15:32:46.993Z,50.70
2018-05-18T15:42:50.941Z,50.70
2018-05-18T15:52:54.919Z,50.70
2018-05-18T16:02:58.095Z,50.60
2018-05-18T16:13:01.309Z,50.70
2018-05-18T16:23:05.231Z,50.80
2018-05-18T16:33:08.417Z,50.70
2018-05-18T16:43:11.737Z,50.70
2018-05-18T16:53:15.686Z,50.70
2018-05-18T17:03:19.696Z,51.20
2018-05-18T17:13:23.850Z,50.70
2018-05-18T17:23:27.025Z,50.70
2018-05-18T17:33:30.213Z,50.70
2018-05-18T17:43:34.451Z,50.60
2018-05-18T17:53:37.630Z,50.60
2018-05-18T18:03:40.810Z,50.60
2018-05-18T18:13:44.024Z,50.60
2018-05-18T18:23:47.313Z,50.60
2018-05-18T18:33:50.558Z,50.60
2018-05-18T18:43:53.836Z,50.50
2018-05-18T18:53:57.797Z,50.60
2018-05-18T19:04:01.756Z,50.40
2018-05-18T19:14:05.695Z,50.40
2018-05-18T19:24:09.051Z,50.40
2018-05-18T19:34:12.182Z,51.00
2018-05-18T19:44:15.414Z,50.40
2018-05-18T19:54:19.357Z,50.40
2018-05-18T20:04:22.710Z,50.30
2018-05-18T20:14:25.885Z,50.30
2018-05-18T20:24:29.829Z,50.40
2018-05-18T20:34:33.016Z,50.30
2018-05-18T20:44:36.192Z,50.30
2018-05-18T20:54:39.374Z,50.40
2018-05-18T21:04:43.329Z,50.30
2018-05-18T21:14:47.267Z,50.30
2018-05-18T21:24:50.458Z,50.30
2018-05-18T21:34:53.961Z,50.30
2018-05-18T21:44:57.146Z,50.30
2018-05-18T21:55:00.416Z,50.30
2018-05-18T22:05:03.666Z,50.40
2018-05-18T22:15:06.847Z,50.40
2018-05-18T22:25:10.811Z,50.40
2018-05-18T22:35:14.751Z,50.40
2018-05-18T22:45:17.961Z,50.30
2018-05-18T22:55:21.167Z,50.30
2018-05-18T23:05:25.105Z,50.40
2018-05-18T23:15:28.284Z,50.40
2018-05-18T23:25:31.488Z,51.00
2018-05-18T23:35:36.411Z,50.40
2018-05-18T23:45:39.611Z,50.40
2018-05-18T23:55:43.752Z,50.40
